createdAt,value
2022-11-06T00:03:38.373Z,998.61
2022-11-06T00:08:42.527Z,998.46
2022-11-06T00:13:46.733Z,998.37
2022-11-06T00:18:50.871Z,998.43
2022-11-06T00:23:55.025Z,998.56
2022-11-06T00:28:59.190Z,998.46
2022-11-06T00:34:03.363Z,998.54
2022-11-06T00:39:07.527Z,998.54
2022-11-06T00:44:11.669Z,998.58
2022-11-06T00:49:15.845Z,998.67
2022-11-06T00:54:19.983Z,998.76
2022-11-06T00:59:24.167Z,998.73
2022-11-06T01:04:28.335Z,998.62
2022-11-06T01:09:32.507Z,998.62
2022-11-06T01:14:36.681Z,998.62
2022-11-06T01:19:40.848Z,998.44
2022-11-06T01:24:45.037Z,998.50
2022-11-06T01:29:49.169Z,998.16
2022-11-06T01:34:53.282Z,998.08
2022-11-06T01:39:57.482Z,998.00
2022-11-06T01:45:01.614Z,997.92
2022-11-06T01:50:05.760Z,997.87
2022-11-06T01:55:09.961Z,997.82
2022-11-06T02:00:14.112Z,997.79
2022-11-06T02:05:18.276Z,997.79
2022-11-06T02:10:22.516Z,997.76
2022-11-06T02:15:26.579Z,997.66
2022-11-06T02:20:28.859Z,997.74
2022-11-06T02:25:33.050Z,997.85
2022-11-06T02:30:37.199Z,997.89
2022-11-06T02:35:41.339Z,997.82
2022-11-06T02:40:45.502Z,997.98
2022-11-06T02:45:49.692Z,997.95
2022-11-06T02:50:53.871Z,997.88
2022-11-06T02:55:58.008Z,997.97
2022-11-06T03:01:02.176Z,997.84
2022-11-06T03:06:06.323Z,997.80
2022-11-06T03:11:10.528Z,997.72
2022-11-06T03:16:14.680Z,997.70
2022-11-06T03:21:18.833Z,997.56
2022-11-06T03:26:23.003Z,997.61
2022-11-06T03:31:27.171Z,997.48
2022-11-06T03:36:31.329Z,997.53
2022-11-06T03:41:35.459Z,997.42
2022-11-06T03:46:39.648Z,997.37
2022-11-06T03:51:43.786Z,997.51
2022-11-06T03:56:47.949Z,997.72
2022-11-06T04:01:52.248Z,997.78
2022-11-06T04:06:56.268Z,997.78
2022-11-06T04:12:00.460Z,997.80
2022-11-06T04:17:04.606Z,997.85
2022-11-06T04:22:08.736Z,997.63
2022-11-06T04:27:12.924Z,997.56
2022-11-06T04:32:17.104Z,997.63
2022-11-06T04:37:21.249Z,997.52
2022-11-06T04:42:25.444Z,997.44
2022-11-06T04:47:29.604Z,997.36
2022-11-06T04:52:33.762Z,997.12
2022-11-06T04:57:37.888Z,997.09
2022-11-06T05:02:42.051Z,997.00
2022-11-06T05:07:46.247Z,996.82
2022-11-06T05:12:50.401Z,996.76
2022-11-06T05:17:54.547Z,996.57
2022-11-06T05:22:58.706Z,996.40
2022-11-06T05:28:02.855Z,996.28
2022-11-06T05:33:07.034Z,996.25
2022-11-06T05:38:11.559Z,996.14
2022-11-06T05:43:15.369Z,996.10
2022-11-06T05:48:19.532Z,995.99
2022-11-06T05:53:23.704Z,995.86
2022-11-06T05:58:27.831Z,995.83
2022-11-06T06:03:31.999Z,995.81
2022-11-06T06:08:36.174Z,995.68
2022-11-06T06:13:40.337Z,995.44
2022-11-06T06:18:44.520Z,995.41
2022-11-06T06:23:48.844Z,995.41
2022-11-06T06:28:52.829Z,995.41
2022-11-06T06:33:57.003Z,995.52
2022-11-06T06:39:01.163Z,995.47
2022-11-06T06:44:05.302Z,995.46
2022-11-06T06:49:09.475Z,995.49
2022-11-06T06:54:13.656Z,995.51
2022-11-06T06:59:17.809Z,995.61
2022-11-06T07:04:21.979Z,995.60
2022-11-06T07:09:26.108Z,995.80
2022-11-06T07:14:30.308Z,995.83
2022-11-06T07:19:34.445Z,995.83
2022-11-06T07:24:38.608Z,996.05
2022-11-06T07:29:42.786Z,995.86
2022-11-06T07:34:46.924Z,995.98
2022-11-06T07:39:51.144Z,996.04
2022-11-06T07:44:55.253Z,996.27
2022-11-06T07:49:57.522Z,996.27
2022-11-06T07:55:01.678Z,996.20
2022-11-06T08:00:05.847Z,996.24
2022-11-06T08:05:10.045Z,996.15
2022-11-06T08:10:14.170Z,996.03
2022-11-06T08:15:18.362Z,996.06
2022-11-06T08:20:20.628Z,996.08
2022-11-06T08:25:24.752Z,995.98
2022-11-06T08:30:28.969Z,995.99
2022-11-06T08:35:33.067Z,996.02
2022-11-06T08:40:37.260Z,996.14
2022-11-06T08:45:41.428Z,996.06
2022-11-06T08:50:45.591Z,995.98
2022-11-06T08:55:49.744Z,995.95
2022-11-06T09:00:53.964Z,995.87
2022-11-06T09:05:58.055Z,995.85
2022-11-06T09:11:02.209Z,995.84
2022-11-06T09:21:10.565Z,996.22
2022-11-06T09:26:14.715Z,996.43
2022-11-06T09:31:18.916Z,996.64
2022-11-06T09:36:23.040Z,996.64
2022-11-06T09:41:27.261Z,996.70
2022-11-06T09:46:31.348Z,996.74
2022-11-06T09:51:35.520Z,996.67
2022-11-06T09:56:39.672Z,996.60
2022-11-06T10:06:48.285Z,996.73
2022-11-06T10:11:52.162Z,996.69
2022-11-06T10:16:56.375Z,996.75
2022-11-06T10:22:00.509Z,996.74
2022-11-06T10:27:04.638Z,996.78
2022-11-06T10:32:08.794Z,996.63
2022-11-06T10:37:12.960Z,996.69
2022-11-06T10:42:17.172Z,996.74
2022-11-06T10:47:21.497Z,996.74
2022-11-06T10:52:25.468Z,996.78
2022-11-06T10:57:29.669Z,996.85
2022-11-06T11:02:33.894Z,996.90
2022-11-06T11:07:37.925Z,997.12
2022-11-06T11:12:42.118Z,996.91
2022-11-06T11:17:46.244Z,996.92
2022-11-06T11:22:50.490Z,996.70
2022-11-06T11:27:54.598Z,997.04
2022-11-06T11:32:58.742Z,996.93
2022-11-06T11:38:02.946Z,996.66
2022-11-06T11:43:07.051Z,996.37
2022-11-06T11:48:11.479Z,996.24
2022-11-06T11:53:15.379Z,996.15
2022-11-06T11:58:19.580Z,996.16
2022-11-06T12:03:23.771Z,996.17
2022-11-06T12:08:27.869Z,996.09
2022-11-06T12:13:32.040Z,996.06
2022-11-06T12:18:36.192Z,995.88
2022-11-06T12:23:40.383Z,995.83
2022-11-06T12:28:44.503Z,995.90
2022-11-06T12:34:05.654Z,995.79
2022-11-06T12:38:52.931Z,995.65
2022-11-06T12:43:56.994Z,995.44
2022-11-06T12:49:01.151Z,995.36
2022-11-06T12:54:05.347Z,995.48
2022-11-06T12:59:09.457Z,995.48
2022-11-06T13:04:13.645Z,995.42
2022-11-06T13:09:17.784Z,995.58
2022-11-06T13:14:21.971Z,995.85
2022-11-06T13:19:26.155Z,995.64
2022-11-06T13:24:30.301Z,995.88
2022-11-06T13:29:34.622Z,996.01
2022-11-06T13:34:38.613Z,995.91
2022-11-06T13:39:42.805Z,995.86
2022-11-06T13:44:46.897Z,995.98
2022-11-06T13:49:49.208Z,995.97
2022-11-06T13:54:53.370Z,995.94
2022-11-06T13:59:57.503Z,995.86
2022-11-06T14:05:01.723Z,995.98
2022-11-06T14:10:05.864Z,995.85
2022-11-06T14:15:10.001Z,995.91
2022-11-06T14:20:14.164Z,996.00
2022-11-06T14:25:18.308Z,996.00
2022-11-06T14:30:22.492Z,995.95
2022-11-06T14:35:26.655Z,996.05
2022-11-06T14:40:30.833Z,996.16
2022-11-06T14:45:34.939Z,996.26
2022-11-06T14:50:39.158Z,996.42
2022-11-06T14:55:43.406Z,996.63
2022-11-06T15:00:47.456Z,996.58
2022-11-06T15:05:52.862Z,996.45
2022-11-06T15:10:55.793Z,996.41
2022-11-06T15:15:59.902Z,996.42
2022-11-06T15:21:04.122Z,996.29
2022-11-06T15:26:08.272Z,996.10
2022-11-06T15:36:16.576Z,996.29
2022-11-06T15:41:20.728Z,996.19
2022-11-06T15:46:24.875Z,996.18
2022-11-06T15:51:29.039Z,996.29
2022-11-06T15:56:33.205Z,996.33
2022-11-06T16:01:37.545Z,995.99
2022-11-06T16:06:41.554Z,995.72
2022-11-06T16:11:45.701Z,995.57
2022-11-06T16:16:49.858Z,995.47
2022-11-06T16:21:54.019Z,995.25
2022-11-06T16:26:58.209Z,994.86
2022-11-06T16:32:02.363Z,994.59
2022-11-06T16:37:06.504Z,994.15
2022-11-06T16:42:10.677Z,993.38
2022-11-06T16:47:14.855Z,992.54
2022-11-06T16:52:18.981Z,992.34
2022-11-06T16:57:23.175Z,991.60
2022-11-06T17:02:27.467Z,991.77
2022-11-06T17:07:31.459Z,992.09
2022-11-06T17:12:35.649Z,992.37
2022-11-06T17:17:40.058Z,992.45
2022-11-06T17:22:43.946Z,992.37
2022-11-06T17:27:48.247Z,992.69
2022-11-06T17:37:56.416Z,992.93
2022-11-06T17:43:00.749Z,992.68
2022-11-06T17:48:04.746Z,992.94
2022-11-06T17:53:08.915Z,993.21
2022-11-06T17:58:13.360Z,993.10
2022-11-06T18:03:17.412Z,992.98
2022-11-06T18:08:21.428Z,992.57
2022-11-06T18:13:25.588Z,992.52
2022-11-06T18:18:29.736Z,992.15
2022-11-06T18:23:33.910Z,991.96
2022-11-06T18:28:38.087Z,992.10
2022-11-06T18:33:42.219Z,992.29
2022-11-06T18:38:46.449Z,992.31
2022-11-06T18:43:50.595Z,992.38
2022-11-06T18:48:54.708Z,992.60
2022-11-06T18:53:58.926Z,992.67
2022-11-06T18:59:03.061Z,992.67
2022-11-06T19:04:07.171Z,992.73
2022-11-06T19:09:11.354Z,992.75
2022-11-06T19:14:15.515Z,992.89
2022-11-06T19:19:25.165Z,992.90
2022-11-06T19:24:21.950Z,992.95
2022-11-06T19:29:26.126Z,992.96
2022-11-06T19:34:34.081Z,992.98
2022-11-06T19:39:34.453Z,993.00
2022-11-06T19:49:42.771Z,993.15
2022-11-06T19:54:46.907Z,993.17
2022-11-06T19:59:51.166Z,993.06
2022-11-06T20:04:55.253Z,993.05
2022-11-06T20:09:59.393Z,993.10
2022-11-06T20:15:03.642Z,993.08
2022-11-06T20:20:07.727Z,993.03
2022-11-06T20:25:11.891Z,993.15
2022-11-06T20:30:16.049Z,993.29
2022-11-06T20:35:20.209Z,993.35
2022-11-06T20:40:24.374Z,993.24
2022-11-06T20:45:28.555Z,993.29
2022-11-06T20:50:32.689Z,993.11
2022-11-06T20:55:36.878Z,993.20
2022-11-06T21:00:41.011Z,993.25
2022-11-06T21:05:45.207Z,993.05
2022-11-06T21:10:49.316Z,993.00
2022-11-06T21:15:53.490Z,992.86
2022-11-06T21:20:57.670Z,992.83
2022-11-06T21:26:01.803Z,992.79
2022-11-06T21:31:05.980Z,992.83
2022-11-06T21:36:10.215Z,992.82
2022-11-06T21:41:14.330Z,992.73
2022-11-06T21:46:18.443Z,992.75
2022-11-06T21:51:22.626Z,992.73
2022-11-06T21:56:26.803Z,992.67
2022-11-06T22:01:31.175Z,992.57
2022-11-06T22:06:35.111Z,992.44
2022-11-06T22:11:39.260Z,992.27
2022-11-06T22:16:43.494Z,992.17
2022-11-06T22:21:47.608Z,992.09
2022-11-06T22:26:51.783Z,991.98
2022-11-06T22:31:55.921Z,991.92
2022-11-06T22:37:00.057Z,991.79
2022-11-06T22:42:04.259Z,991.78
2022-11-06T22:47:08.393Z,991.70
2022-11-06T22:52:12.567Z,991.66
2022-11-06T22:57:16.704Z,991.60
2022-11-06T23:07:25.033Z,991.53
2022-11-06T23:12:29.218Z,991.49
2022-11-06T23:17:33.359Z,991.63
2022-11-06T23:22:37.508Z,991.65
2022-11-06T23:27:47.027Z,991.75
2022-11-06T23:32:45.883Z,991.88
2022-11-06T23:37:50.009Z,991.84
2022-11-06T23:42:54.187Z,991.84
2022-11-06T23:47:58.331Z,991.95
2022-11-06T23:53:02.463Z,992.03
2022-11-06T23:58:06.659Z,991.91
